Time;durP1;ratioP1;P1;durP2;ratioP2;P2;SDS_P1;SDS_P2;PMS_P1;PMS_P2;Temp;Humidity;BMP_temperature;BMP_pressure;BME280_temperature;BME280_humidity;BME280_pressure;Samples;Min_cycle;Max_cycle;Signal;HPM_P1;HPM_P2
2021/03/08 00:00:39;;;;;;;335.08;146.55;;;77.10;1459.20;;;;;;4863529;29;20029;-72
2021/03/08 00:03:06;;;;;;;324.25;143.63;;;77.10;1459.20;;;;;;4863396;29;20026;-69
2021/03/08 00:05:32;;;;;;;331.13;151.73;;;77.10;1459.20;;;;;;4862301;29;20022;-69
2021/03/08 00:07:58;;;;;;;331.25;151.60;;;77.00;1459.20;;;;;;4863340;29;20033;-60
2021/03/08 00:10:24;;;;;;;344.10;159.23;;;77.00;1484.80;;;;;;4863330;29;20022;-61
2021/03/08 00:12:50;;;;;;;337.80;154.90;;;77.00;1459.20;;;;;;4863751;29;20154;-61
2021/03/08 00:15:19;;;;;;;343.55;161.85;;;77.00;1484.80;;;;;;4862940;29;20036;-69
2021/03/08 00:17:46;;;;;;;349.02;165.45;;;77.00;1459.20;;;;;;4862818;29;20045;-67
2021/03/08 00:20:17;;;;;;;359.65;173.75;;;77.00;1459.20;;;;;;4863258;29;20029;-65
2021/03/08 00:22:44;;;;;;;364.23;172.02;;;77.00;1484.80;;;;;;4863318;29;20025;-64
2021/03/08 00:25:12;;;;;;;373.08;181.00;;;77.00;1459.20;;;;;;4863344;29;20361;-68
2021/03/08 00:27:38;;;;;;;368.55;179.23;;;77.00;1459.20;;;;;;4863278;29;20033;-64
2021/03/08 00:30:06;;;;;;;406.45;195.65;;;76.90;1459.20;;;;;;4862945;29;20032;-62
2021/03/08 00:32:32;;;;;;;399.92;198.25;;;76.90;1459.20;;;;;;4863832;29;20041;-66
2021/03/08 00:34:58;;;;;;;405.08;197.25;;;76.90;1459.20;;;;;;4863068;29;20033;-68
2021/03/08 00:37:30;;;;;;;398.67;196.32;;;76.90;1459.20;;;;;;4862639;29;20480;-67
2021/03/08 00:40:06;;;;;;;397.90;197.02;;;76.90;1459.20;;;;;;4862163;29;20038;-69
2021/03/08 00:42:32;;;;;;;408.00;199.57;;;76.90;1459.20;;;;;;4862300;29;20044;-74
2021/03/08 00:44:59;;;;;;;395.05;197.23;;;76.90;1459.20;;;;;;4862225;29;20033;-69
2021/03/08 00:47:25;;;;;;;401.50;188.65;;;76.90;1459.20;;;;;;4862215;29;20060;-69
2021/03/08 00:49:51;;;;;;;396.75;193.13;;;76.80;1484.80;;;;;;4862640;29;20056;-68
2021/03/08 00:52:17;;;;;;;414.27;195.55;;;76.80;1484.80;;;;;;4862900;29;20026;-70
2021/03/08 00:54:43;;;;;;;415.60;194.20;;;76.80;1484.80;;;;;;4863605;29;20040;-71
2021/03/08 00:57:09;;;;;;;408.10;194.00;;;76.80;1484.80;;;;;;4861841;29;20112;-72
2021/03/08 00:59:35;;;;;;;414.40;195.52;;;76.80;1484.80;;;;;;4862096;29;20033;-70
2021/03/08 01:02:01;;;;;;;408.80;189.55;;;76.80;1484.80;;;;;;4862468;29;20041;-73
2021/03/08 01:04:27;;;;;;;411.52;187.55;;;76.80;1484.80;;;;;;4862285;29;20033;-73
2021/03/08 01:06:53;;;;;;;404.92;182.52;;;76.80;1459.20;;;;;;4862354;29;20033;-71
2021/03/08 01:09:18;;;;;;;379.75;169.77;;;76.80;1459.20;;;;;;4862350;29;20029;-72
2021/03/08 01:11:44;;;;;;;373.83;168.45;;;76.80;1484.80;;;;;;4862303;29;20407;-71
2021/03/08 01:14:11;;;;;;;347.90;156.73;;;76.80;1484.80;;;;;;4862440;29;20040;-71
2021/03/08 01:16:37;;;;;;;348.98;152.75;;;76.80;1484.80;;;;;;4861723;29;20392;-67
2021/03/08 01:19:03;;;;;;;340.63;150.73;;;52.10;1484.80;;;;;;4862346;29;20029;-68
2021/03/08 01:21:29;;;;;;;329.15;146.70;;;52.10;1510.40;;;;;;4862436;29;20029;-72
2021/03/08 01:23:55;;;;;;;353.88;153.63;;;52.10;1510.40;;;;;;4860292;29;20449;-67
2021/03/08 01:26:20;;;;;;;354.73;158.70;;;52.10;1510.40;;;;;;4862155;29;20056;-71
2021/03/08 01:28:46;;;;;;;349.75;152.38;;;52.10;1510.40;;;;;;4862035;29;20034;-69
2021/03/08 01:31:12;;;;;;;344.13;153.20;;;52.10;1484.80;;;;;;4861550;29;20078;-67
2021/03/08 01:33:38;;;;;;;346.25;151.07;;;52.10;1484.80;;;;;;4861734;29;20056;-64
2021/03/08 01:36:04;;;;;;;351.88;153.82;;;52.10;1484.80;;;;;;4861953;29;20380;-60
2021/03/08 01:38:30;;;;;;;333.70;146.80;;;52.10;1484.80;;;;;;4861830;29;20108;-64
2021/03/08 01:40:56;;;;;;;337.77;148.18;;;52.00;1484.80;;;;;;4866210;29;20105;-65
2021/03/08 01:43:23;;;;;;;333.10;144.32;;;52.00;1484.80;;;;;;4861823;29;20025;-65
2021/03/08 01:45:49;;;;;;;313.02;138.88;;;52.00;1484.80;;;;;;4861740;29;20080;-73
2021/03/08 01:48:15;;;;;;;329.80;144.77;;;52.00;1484.80;;;;;;4861669;29;20079;-61
2021/03/08 01:50:44;;;;;;;324.98;139.18;;;52.00;1484.80;;;;;;4861351;29;20859;-71
2021/03/08 01:53:14;;;;;;;328.38;139.77;;;52.00;1484.80;;;;;;4861332;29;20037;-67
2021/03/08 01:55:42;;;;;;;362.98;149.88;;;51.90;1484.80;;;;;;4861955;29;20100;-71
2021/03/08 01:58:08;;;;;;;358.17;149.70;;;51.90;1484.80;;;;;;4862399;29;20408;-72
2021/03/08 02:00:34;;;;;;;352.40;144.45;;;51.90;1510.40;;;;;;4861701;29;20063;-68
2021/03/08 02:03:00;;;;;;;356.92;148.30;;;51.90;1510.40;;;;;;4860648;29;20068;-71
2021/03/08 02:05:31;;;;;;;317.35;134.82;;;51.90;1484.80;;;;;;4861477;29;20063;-69
2021/03/08 02:07:57;;;;;;;287.13;128.05;;;51.90;1510.40;;;;;;4861121;29;20612;-68
2021/03/08 02:10:24;;;;;;;266.63;121.05;;;51.90;1510.40;;;;;;4861756;29;20480;-71
2021/03/08 02:13:11;;;;;;;268.70;117.05;;;51.90;1510.40;;;;;;4862053;29;20030;-70
2021/03/08 02:15:49;;;;;;;248.38;107.32;;;51.90;1536.00;;;;;;4861113;29;20048;-64
2021/03/08 02:18:43;;;;;;;216.13;101.25;;;51.90;1510.40;;;;;;4861004;29;20021;-73
2021/03/08 02:21:27;;;;;;;195.57;93.45;;;51.90;1536.00;;;;;;4860266;29;20035;-69
2021/03/08 02:24:29;;;;;;;207.05;98.70;;;51.90;1536.00;;;;;;4861539;29;20404;-68
2021/03/08 02:27:05;;;;;;;206.07;94.38;;;51.90;1510.40;;;;;;4861156;29;20042;-64
2021/03/08 02:30:06;;;;;;;186.68;88.90;;;51.90;1536.00;;;;;;4843232;29;20026;-68
2021/03/08 02:32:47;;;;;;;191.00;90.93;;;51.90;1536.00;;;;;;4837226;29;20045;-68
2021/03/08 02:35:18;;;;;;;196.48;88.70;;;51.90;1536.00;;;;;;4826123;29;20054;-68
2021/03/08 02:38:00;;;;;;;200.27;90.93;;;51.90;1510.40;;;;;;4837396;29;20134;-69
2021/03/08 02:41:03;;;;;;;190.30;84.40;;;51.90;1510.40;;;;;;4840439;29;20480;-66
2021/03/08 02:43:40;;;;;;;176.50;81.55;;;51.90;1510.40;;;;;;4822167;29;20111;-68
2021/03/08 02:46:30;;;;;;;179.07;81.80;;;51.90;1510.40;;;;;;4822195;29;20031;-70
2021/03/08 02:49:00;;;;;;;163.05;76.78;;;51.80;1484.80;;;;;;4785607;29;20066;-64
2021/03/08 02:51:29;;;;;;;158.35;72.35;;;51.90;1510.40;;;;;;4780717;30;20174;-64
2021/03/08 02:53:57;;;;;;;145.45;69.95;;;51.80;1484.80;;;;;;4784673;30;20073;-70
2021/03/08 02:56:29;;;;;;;155.35;72.53;;;51.80;1484.80;;;;;;4784907;29;20407;-68
2021/03/08 02:58:56;;;;;;;135.60;65.15;;;51.80;1484.80;;;;;;4785665;29;20032;-67
2021/03/08 03:01:24;;;;;;;129.63;64.88;;;51.80;1484.80;;;;;;4786068;29;20075;-61
2021/03/08 03:03:56;;;;;;;127.68;63.55;;;51.80;1484.80;;;;;;4789831;30;20586;-65
2021/03/08 03:06:27;;;;;;;127.07;62.80;;;51.80;1484.80;;;;;;4790034;30;20043;-67
2021/03/08 03:08:55;;;;;;;127.70;60.67;;;51.70;1484.80;;;;;;4789902;30;20047;-62
2021/03/08 03:11:22;;;;;;;118.15;59.38;;;51.70;1484.80;;;;;;4789944;30;20110;-68
2021/03/08 03:13:51;;;;;;;115.90;59.13;;;51.70;1484.80;;;;;;4790048;30;20192;-69
2021/03/08 03:16:18;;;;;;;116.50;57.53;;;51.70;1484.80;;;;;;4790031;30;20039;-69
2021/03/08 03:18:52;;;;;;;115.05;55.95;;;51.70;1484.80;;;;;;4791306;29;20043;-73
2021/03/08 03:21:19;;;;;;;127.03;57.20;;;51.70;1484.80;;;;;;4807808;29;20031;-68
2021/03/08 03:23:48;;;;;;;133.27;60.38;;;51.70;1484.80;;;;;;4807905;29;20062;-72
2021/03/08 03:26:15;;;;;;;129.35;61.90;;;51.70;1484.80;;;;;;4843356;29;20125;-68
2021/03/08 03:28:42;;;;;;;137.05;64.15;;;51.60;1484.80;;;;;;4864537;29;20472;-69
2021/03/08 03:31:08;;;;;;;145.55;65.90;;;51.70;1484.80;;;;;;4864647;29;20026;-66
2021/03/08 03:33:35;;;;;;;137.68;66.22;;;51.70;1484.80;;;;;;4864235;29;20519;-69
2021/03/08 03:36:02;;;;;;;138.73;67.85;;;51.70;1484.80;;;;;;4878994;29;20049;-68
2021/03/08 03:38:28;;;;;;;130.10;64.25;;;51.60;1484.80;;;;;;4864512;29;20037;-69
2021/03/08 03:40:55;;;;;;;136.98;66.68;;;51.60;1484.80;;;;;;4864468;29;20380;-69
2021/03/08 03:43:35;;;;;;;132.07;66.38;;;51.60;1484.80;;;;;;4864886;29;20022;-70
2021/03/08 03:46:02;;;;;;;133.10;67.85;;;51.60;1510.40;;;;;;4864296;29;20357;-74
2021/03/08 03:48:29;;;;;;;135.63;67.85;;;51.60;1484.80;;;;;;4864142;29;20029;-75
2021/03/08 03:50:55;;;;;;;139.10;67.40;;;51.60;1484.80;;;;;;4864237;29;20029;-74
2021/03/08 03:53:20;;;;;;;140.05;67.78;;;51.60;1510.40;;;;;;4863966;29;20033;-74
2021/03/08 03:55:47;;;;;;;136.73;67.32;;;51.60;1484.80;;;;;;4864329;29;20030;-80
2021/03/08 03:58:24;;;;;;;133.38;66.57;;;51.60;1510.40;;;;;;4863784;29;20052;-70
2021/03/08 04:00:56;;;;;;;140.45;69.20;;;51.60;1510.40;;;;;;4864175;29;20033;-71
2021/03/08 04:03:28;;;;;;;147.20;71.28;;;51.50;1510.40;;;;;;4864004;29;20029;-72
2021/03/08 04:05:56;;;;;;;138.45;67.78;;;51.50;1510.40;;;;;;4878498;29;20034;-73
2021/03/08 04:08:26;;;;;;;148.40;70.18;;;51.60;1536.00;;;;;;4863972;29;20503;-73
2021/03/08 04:10:54;;;;;;;148.00;72.57;;;51.50;1536.00;;;;;;4863956;29;20034;-72
2021/03/08 04:13:25;;;;;;;143.98;70.00;;;51.60;1536.00;;;;;;4863567;29;20041;-72
2021/03/08 04:15:52;;;;;;;137.32;64.40;;;51.60;1536.00;;;;;;4863941;29;20033;-68
2021/03/08 04:18:18;;;;;;;129.52;60.33;;;51.60;1510.40;;;;;;4863748;29;20116;-74
2021/03/08 04:20:45;;;;;;;130.25;63.10;;;51.60;1536.00;;;;;;4864641;29;20049;-73
2021/03/08 04:23:12;;;;;;;122.97;62.28;;;51.60;1536.00;;;;;;4863639;29;20061;-72
2021/03/08 04:25:44;;;;;;;122.35;58.97;;;51.60;1536.00;;;;;;4863920;29;20170;-70
2021/03/08 04:28:10;;;;;;;119.57;55.83;;;51.60;1536.00;;;;;;4863680;29;20134;-73
2021/03/08 04:30:37;;;;;;;118.93;57.80;;;51.60;1536.00;;;;;;4863735;29;20025;-72
2021/03/08 04:33:05;;;;;;;108.38;52.45;;;51.50;1536.00;;;;;;4863609;29;20045;-68
2021/03/08 04:35:32;;;;;;;114.28;55.20;;;51.50;1536.00;;;;;;4863588;29;20038;-73
2021/03/08 04:38:07;;;;;;;117.22;56.63;;;51.50;1561.60;;;;;;4863262;29;20455;-72
2021/03/08 04:40:34;;;;;;;108.88;55.78;;;51.50;1561.60;;;;;;4863035;29;20041;-64
2021/03/08 04:43:03;;;;;;;112.43;59.08;;;51.50;1561.60;;;;;;4863444;29;20433;-73
2021/03/08 04:45:30;;;;;;;123.00;61.35;;;51.50;1561.60;;;;;;4863464;29;20053;-72
2021/03/08 04:47:56;;;;;;;146.55;62.60;;;51.50;1561.60;;;;;;4863587;29;20033;-70
2021/03/08 04:50:23;;;;;;;124.47;61.30;;;51.50;1561.60;;;;;;4863420;29;20128;-73
2021/03/08 04:52:52;;;;;;;118.63;57.30;;;51.50;1561.60;;;;;;4863033;29;20108;-73
2021/03/08 04:55:21;;;;;;;122.07;61.05;;;51.50;1561.60;;;;;;4863236;29;20034;-73
2021/03/08 04:57:46;;;;;;;136.65;61.35;;;51.60;1561.60;;;;;;4863070;29;20030;-72
2021/03/08 05:00:14;;;;;;;129.40;61.58;;;51.60;1561.60;;;;;;4862818;29;20036;-72
2021/03/08 05:02:41;;;;;;;135.07;62.25;;;51.60;1561.60;;;;;;4863125;29;20025;-73
2021/03/08 05:05:09;;;;;;;123.05;59.45;;;51.60;1561.60;;;;;;4863059;29;20037;-73
2021/03/08 05:07:38;;;;;;;129.15;60.75;;;51.60;1561.60;;;;;;4862819;29;20485;-72
2021/03/08 05:10:09;;;;;;;157.85;72.78;;;51.60;1561.60;;;;;;4862790;29;20021;-68
2021/03/08 05:12:39;;;;;;;133.20;63.95;;;51.60;1587.20;;;;;;4862908;29;20108;-73
2021/03/08 05:15:07;;;;;;;129.15;63.17;;;51.60;1561.60;;;;;;4862592;29;20041;-73
2021/03/08 05:17:34;;;;;;;128.00;62.55;;;51.60;1612.80;;;;;;4862612;29;20491;-73
2021/03/08 05:20:03;;;;;;;133.57;68.90;;;51.50;1587.20;;;;;;4862750;29;20473;-72
2021/03/08 05:22:29;;;;;;;147.82;68.55;;;51.50;1612.80;;;;;;4862517;29;20029;-73
2021/03/08 05:24:55;;;;;;;148.38;68.00;;;51.50;1587.20;;;;;;4862124;29;20036;-69
2021/03/08 05:27:21;;;;;;;129.48;64.43;;;51.50;1587.20;;;;;;4862607;29;20112;-73
2021/03/08 05:29:49;;;;;;;120.20;61.33;;;51.40;1587.20;;;;;;4863764;29;20073;-73
2021/03/08 05:32:28;;;;;;;119.32;58.17;;;51.50;1561.60;;;;;;4862539;29;20033;-73
2021/03/08 05:34:55;;;;;;;117.97;59.30;;;51.50;1561.60;;;;;;4845889;29;20041;-72
2021/03/08 05:37:21;;;;;;;127.32;60.15;;;51.50;1561.60;;;;;;4862244;29;20060;-73
2021/03/08 05:39:48;;;;;;;126.00;65.47;;;51.50;1561.60;;;;;;4862443;29;20029;-71
2021/03/08 05:42:16;;;;;;;145.65;70.65;;;51.50;1561.60;;;;;;4862516;29;20025;-66
2021/03/08 05:45:09;;;;;;;154.30;68.60;;;51.50;1561.60;;;;;;4862566;29;20082;-66
2021/03/08 05:48:04;;;;;;;143.95;72.72;;;51.60;1561.60;;;;;;4862248;29;20030;-68
2021/03/08 05:51:01;;;;;;;176.73;82.07;;;51.60;1587.20;;;;;;4862234;29;20044;-73
2021/03/08 05:53:55;;;;;;;199.73;88.10;;;51.70;1561.60;;;;;;4861827;29;20037;-73
2021/03/08 05:56:42;;;;;;;198.73;92.45;;;51.70;1561.60;;;;;;4862254;29;20032;-72
2021/03/08 05:59:42;;;;;;;205.15;96.72;;;51.70;1587.20;;;;;;4862012;29;20036;-66
2021/03/08 06:02:26;;;;;;;235.98;104.15;;;51.80;1587.20;;;;;;4862015;29;20029;-73
2021/03/08 06:05:09;;;;;;;224.15;110.45;;;51.80;1587.20;;;;;;4861739;29;20064;-72
2021/03/08 06:08:02;;;;;;;247.27;112.38;;;51.80;1612.80;;;;;;4861790;29;20030;-72
2021/03/08 06:10:33;;;;;;;231.43;105.93;;;51.90;1612.80;;;;;;4861923;29;20113;-69
2021/03/08 06:13:09;;;;;;;230.43;109.78;;;51.90;1638.40;;;;;;4861980;29;20052;-69
2021/03/08 06:15:36;;;;;;;232.32;105.50;;;51.90;1638.40;;;;;;4861960;29;20044;-72
2021/03/08 06:18:07;;;;;;;216.93;103.90;;;51.90;1638.40;;;;;;4861763;29;20021;-67
2021/03/08 06:20:33;;;;;;;201.20;93.43;;;51.90;1638.40;;;;;;4875864;29;20109;-73
2021/03/08 06:23:01;;;;;;;184.45;91.50;;;51.90;1638.40;;;;;;4861365;29;20029;-67
2021/03/08 06:25:29;;;;;;;184.48;90.03;;;52.00;1612.80;;;;;;4861541;29;20044;-72
2021/03/08 06:27:57;;;;;;;176.77;85.95;;;52.10;1638.40;;;;;;4861623;29;20026;-72
2021/03/08 06:30:24;;;;;;;174.98;78.88;;;76.80;1612.80;;;;;;4861535;29;20057;-73
2021/03/08 06:32:51;;;;;;;155.25;74.97;;;76.90;1612.80;;;;;;4861774;29;20049;-73
2021/03/08 06:35:17;;;;;;;161.32;77.63;;;77.00;1612.80;;;;;;4861655;29;20068;-69
2021/03/08 06:37:45;;;;;;;150.65;75.90;;;77.10;1587.20;;;;;;4861482;29;20025;-73
2021/03/08 06:40:12;;;;;;;147.60;69.35;;;77.20;1587.20;;;;;;4861652;29;20085;-74
2021/03/08 06:42:38;;;;;;;133.65;66.18;;;77.30;1587.20;;;;;;4861426;29;20492;-71
2021/03/08 06:45:06;;;;;;;132.88;67.95;;;77.40;1587.20;;;;;;4861565;29;20030;-73
2021/03/08 06:47:33;;;;;;;129.80;68.97;;;77.50;1561.60;;;;;;4861400;29;20037;-73
2021/03/08 06:49:58;;;;;;;126.45;67.55;;;77.60;1561.60;;;;;;4862045;29;20037;-73
2021/03/08 06:52:42;;;;;;;128.30;67.00;;;77.70;1536.00;;;;;;4861423;29;20373;-72
2021/03/08 06:55:09;;;;;;;130.70;66.18;;;102.40;1536.00;;;;;;4861091;29;20038;-73
2021/03/08 06:57:38;;;;;;;117.15;63.25;;;102.50;1536.00;;;;;;4860898;29;20030;-69
2021/03/08 07:00:07;;;;;;;104.35;58.28;;;102.60;1510.40;;;;;;4861463;29;20116;-72
2021/03/08 07:02:39;;;;;;;98.38;53.78;;;102.70;1510.40;;;;;;4861359;29;20026;-71
2021/03/08 07:05:07;;;;;;;109.70;53.75;;;102.80;1510.40;;;;;;4861336;29;20040;-72
2021/03/08 07:07:51;;;;;;;99.85;53.35;;;102.90;1484.80;;;;;;4861369;29;20022;-72
2021/03/08 07:10:33;;;;;;;100.45;53.55;;;103.10;1459.20;;;;;;4861185;29;20032;-72
2021/03/08 07:12:59;;;;;;;109.03;57.10;;;128.00;1484.80;;;;;;4861237;29;20415;-67
2021/03/08 07:15:25;;;;;;;117.18;61.35;;;128.20;1459.20;;;;;;4861305;29;20029;-69
2021/03/08 07:17:51;;;;;;;105.57;58.08;;;128.50;1484.80;;;;;;4861273;29;20064;-62
2021/03/08 07:20:17;;;;;;;111.68;62.38;;;128.80;1459.20;;;;;;4860944;29;20030;-73
2021/03/08 07:22:55;;;;;;;106.45;60.63;;;153.70;1459.20;;;;;;4860778;29;20025;-72
2021/03/08 07:25:28;;;;;;;113.70;64.43;;;154.00;1433.60;;;;;;4861101;29;20109;-62
2021/03/08 07:28:03;;;;;;;110.43;64.70;;;154.40;1408.00;;;;;;4861248;29;20038;-65
2021/03/08 07:30:30;;;;;;;110.45;63.63;;;179.30;1382.40;;;;;;4860914;29;20430;-62
2021/03/08 07:33:03;;;;;;;113.38;61.50;;;179.60;1356.80;;;;;;4861021;29;20384;-72
2021/03/08 07:35:36;;;;;;;114.13;61.78;;;179.90;1356.80;;;;;;4860992;29;20038;-69
2021/03/08 07:38:04;;;;;;;104.72;60.85;;;204.80;1305.60;;;;;;4860963;29;20038;-61
2021/03/08 07:40:29;;;;;;;102.82;60.25;;;205.10;1280.00;;;;;;4860777;29;20040;-73
2021/03/08 07:42:55;;;;;;;118.63;68.55;;;205.40;1254.40;;;;;;4860623;29;20030;-73
2021/03/08 07:45:36;;;;;;;161.13;94.90;;;205.70;1228.80;;;;;;4860696;29;20049;-67
2021/03/08 07:48:10;;;;;;;90.97;50.78;;;230.60;1203.20;;;;;;4862154;29;20037;-74
2021/03/08 07:50:36;;;;;;;87.15;52.10;;;230.80;1152.00;;;;;;4864300;29;20049;-64
2021/03/08 07:53:01;;;;;;;74.63;45.88;;;231.00;1152.00;;;;;;4864018;29;20480;-67
2021/03/08 07:55:37;;;;;;;51.25;33.50;;;231.20;1100.80;;;;;;4864146;29;20045;-63
2021/03/08 07:58:04;;;;;;;63.80;36.03;;;231.30;1126.40;;;;;;4863776;29;20378;-73
2021/03/08 08:00:31;;;;;;;49.40;31.55;;;256.00;1100.80;;;;;;4863990;29;20495;-73
2021/03/08 08:03:00;;;;;;;45.03;26.70;;;256.20;1100.80;;;;;;4863980;29;20034;-71
2021/03/08 08:05:25;;;;;;;52.45;26.92;;;256.40;1049.60;;;;;;4864603;29;20026;-72
2021/03/08 08:07:54;;;;;;;40.88;25.02;;;256.80;1024.00;;;;;;4863929;29;20089;-73
2021/03/08 08:10:20;;;;;;;48.83;25.48;;;281.70;1049.60;;;;;;4863750;29;20037;-69
2021/03/08 08:12:48;;;;;;;39.17;25.05;;;282.00;1024.00;;;;;;4864000;29;20053;-72
2021/03/08 08:15:17;;;;;;;54.50;28.83;;;282.30;998.40;;;;;;4863729;29;20037;-66
2021/03/08 08:17:45;;;;;;;48.58;30.10;;;282.50;998.40;;;;;;4863049;29;20392;-62
2021/03/08 08:20:13;;;;;;;48.63;30.23;;;307.40;998.40;;;;;;4861296;29;20485;-66
2021/03/08 08:22:50;;;;;;;50.05;27.65;;;307.70;972.80;;;;;;4862501;29;20030;-70
2021/03/08 08:25:16;;;;;;;61.20;28.85;;;308.10;947.20;;;;;;4862805;29;20067;-72
2021/03/08 08:27:42;;;;;;;48.05;28.10;;;332.90;972.80;;;;;;4862574;29;20040;-66
2021/03/08 08:30:09;;;;;;;54.60;29.35;;;332.90;921.60;;;;;;4862731;29;20022;-64
2021/03/08 08:32:57;;;;;;;48.08;27.67;;;332.90;921.60;;;;;;4862640;29;20037;-72
2021/03/08 08:35:25;;;;;;;93.25;39.90;;;332.80;947.20;;;;;;4862204;29;20112;-73
2021/03/08 08:38:06;;;;;;;120.18;49.17;;;332.80;947.20;;;;;;4862750;29;20384;-72
2021/03/08 08:40:33;;;;;;;68.53;35.60;;;308.10;921.60;;;;;;4862336;29;20033;-73
2021/03/08 08:43:19;;;;;;;52.78;29.45;;;332.80;947.20;;;;;;4862269;29;20033;-73
2021/03/08 08:45:52;;;;;;;45.38;24.67;;;308.10;896.00;;;;;;4862526;29;20048;-74
2021/03/08 08:48:20;;;;;;;39.72;23.17;;;308.10;896.00;;;;;;4862510;29;20034;-74
2021/03/08 08:50:51;;;;;;;42.75;23.98;;;308.00;896.00;;;;;;4862381;29;20034;-74
2021/03/08 08:53:36;;;;;;;42.60;24.13;;;308.00;896.00;;;;;;4862000;29;20049;-72
2021/03/08 08:56:04;;;;;;;40.15;22.08;;;308.00;896.00;;;;;;4862418;29;20037;-73
2021/03/08 08:58:34;;;;;;;35.60;21.27;;;308.00;870.40;;;;;;4861323;29;20053;-73
2021/03/08 09:01:09;;;;;;;31.90;20.60;;;308.10;870.40;;;;;;4861583;29;20084;-74
2021/03/08 09:03:53;;;;;;;29.92;20.85;;;332.80;896.00;;;;;;4862023;29;20057;-63
2021/03/08 09:06:44;;;;;;;38.55;23.42;;;332.90;896.00;;;;;;4861505;29;20104;-67
2021/03/08 09:09:31;;;;;;;33.67;22.63;;;333.00;896.00;;;;;;4861594;29;20049;-74
2021/03/08 09:11:59;;;;;;;32.58;21.45;;;333.00;896.00;;;;;;4859561;29;20086;-69
2021/03/08 09:14:41;;;;;;;31.20;20.55;;;333.10;870.40;;;;;;4859424;29;20060;-72
2021/03/08 09:17:16;;;;;;;35.92;21.55;;;333.20;896.00;;;;;;4859531;29;20148;-69
2021/03/08 09:19:44;;;;;;;33.80;20.67;;;333.30;870.40;;;;;;4859223;29;20033;-73
2021/03/08 09:22:22;;;;;;;32.85;20.90;;;333.30;870.40;;;;;;4858887;29;20177;-73
2021/03/08 09:24:53;;;;;;;31.20;20.63;;;333.30;844.80;;;;;;4859395;29;20030;-62
2021/03/08 09:27:28;;;;;;;35.17;21.90;;;333.30;870.40;;;;;;4859260;29;20030;-72
2021/03/08 09:30:00;;;;;;;32.45;20.83;;;333.10;844.80;;;;;;4859395;29;20133;-68
2021/03/08 09:32:26;;;;;;;37.83;22.92;;;333.10;870.40;;;;;;4858721;29;20038;-65
2021/03/08 09:34:52;;;;;;;34.15;20.38;;;333.10;870.40;;;;;;4858614;29;20648;-73
2021/03/08 09:37:19;;;;;;;27.05;18.85;;;333.20;844.80;;;;;;4859193;29;20575;-70
2021/03/08 09:39:53;;;;;;;31.42;19.58;;;333.30;844.80;;;;;;4858801;29;20037;-70
2021/03/08 09:42:37;;;;;;;33.22;19.00;;;333.60;844.80;;;;;;4858441;29;20033;-74
2021/03/08 09:45:19;;;;;;;26.77;16.15;;;358.40;819.20;;;;;;4859252;29;20040;-72
2021/03/08 09:47:46;;;;;;;24.25;16.67;;;358.40;793.60;;;;;;4859307;29;20033;-74
2021/03/08 09:50:17;;;;;;;24.67;15.70;;;358.60;793.60;;;;;;4860579;29;20539;-73
2021/03/08 09:52:44;;;;;;;23.27;16.00;;;358.80;793.60;;;;;;4860978;29;20094;-74
2021/03/08 09:55:15;;;;;;;25.20;15.13;;;358.90;768.00;;;;;;4860884;29;20078;-74
2021/03/08 09:57:42;;;;;;;32.22;17.05;;;358.90;768.00;;;;;;4860219;29;20461;-71
2021/03/08 10:00:11;;;;;;;24.55;15.70;;;358.90;742.40;;;;;;4860723;29;20392;-69
2021/03/08 10:02:37;;;;;;;22.23;15.27;;;359.00;742.40;;;;;;4859973;29;20029;-63
2021/03/08 10:05:08;;;;;;;22.50;15.50;;;359.20;742.40;;;;;;4860228;29;20040;-70
2021/03/08 10:07:34;;;;;;;23.40;16.33;;;359.30;716.80;;;;;;4860821;29;20026;-74
2021/03/08 10:10:16;;;;;;;26.08;17.77;;;384.10;716.80;;;;;;4860121;29;20033;-73
2021/03/08 10:12:42;;;;;;;26.35;15.27;;;384.20;716.80;;;;;;4858385;29;20029;-73
2021/03/08 10:15:11;;;;;;;25.25;16.77;;;384.30;716.80;;;;;;4860224;29;20400;-73
2021/03/08 10:17:59;;;;;;;28.50;17.45;;;384.40;691.20;;;;;;4871010;29;20033;-71
2021/03/08 10:20:27;;;;;;;23.27;15.77;;;384.50;691.20;;;;;;4879037;29;20032;-73
2021/03/08 10:22:54;;;;;;;21.88;14.35;;;384.70;691.20;;;;;;4867534;29;20040;-74
2021/03/08 10:25:24;;;;;;;23.70;15.10;;;384.80;716.80;;;;;;4860469;29;20025;-74
2021/03/08 10:27:52;;;;;;;24.13;15.93;;;409.70;716.80;;;;;;4860310;29;20025;-74
2021/03/08 10:30:18;;;;;;;20.58;15.05;;;409.80;691.20;;;;;;4860309;29;20491;-71
2021/03/08 10:32:46;;;;;;;20.58;14.52;;;410.00;691.20;;;;;;4860255;29;20045;-74
2021/03/08 10:35:12;;;;;;;25.92;16.25;;;410.10;691.20;;;;;;4859893;29;20041;-74
2021/03/08 10:37:40;;;;;;;22.13;14.02;;;410.30;665.60;;;;;;4861898;29;20035;-69
2021/03/08 10:40:07;;;;;;;26.35;16.10;;;410.40;665.60;;;;;;4879012;29;20029;-73
2021/03/08 10:42:35;;;;;;;20.33;14.30;;;410.50;665.60;;;;;;4877813;29;20033;-73
2021/03/08 10:45:02;;;;;;;23.45;15.32;;;435.30;665.60;;;;;;4878958;29;20029;-67
2021/03/08 10:47:28;;;;;;;22.40;15.65;;;435.40;665.60;;;;;;4878678;29;20037;-73
2021/03/08 10:49:54;;;;;;;21.25;14.25;;;435.50;665.60;;;;;;4878729;29;20033;-68
2021/03/08 10:52:21;;;;;;;23.85;16.05;;;435.70;665.60;;;;;;4879161;29;20040;-74
2021/03/08 10:54:47;;;;;;;23.20;16.63;;;435.80;640.00;;;;;;4878072;29;20045;-74
2021/03/08 10:57:13;;;;;;;26.55;16.10;;;435.90;640.00;;;;;;4878727;29;20036;-72
2021/03/08 10:59:49;;;;;;;24.27;16.08;;;435.90;640.00;;;;;;4879008;29;20399;-70
2021/03/08 11:02:16;;;;;;;19.85;14.95;;;436.00;640.00;;;;;;4878870;29;20033;-74
2021/03/08 11:04:44;;;;;;;22.67;16.23;;;436.00;640.00;;;;;;4869414;29;20025;-74
2021/03/08 11:07:11;;;;;;;23.48;16.35;;;436.10;614.40;;;;;;4859218;29;20033;-68
2021/03/08 11:09:39;;;;;;;25.02;16.05;;;460.80;640.00;;;;;;4859462;29;20038;-64
2021/03/08 11:12:16;;;;;;;43.55;16.40;;;460.80;665.60;;;;;;4860204;29;20026;-75
2021/03/08 11:14:56;;;;;;;22.52;15.30;;;460.80;665.60;;;;;;4860201;29;20548;-66
2021/03/08 11:17:41;;;;;;;21.85;15.05;;;436.10;588.80;;;;;;4860212;29;20044;-74
2021/03/08 11:20:16;;;;;;;20.63;15.10;;;436.00;614.40;;;;;;4859974;29;20021;-77
2021/03/08 11:22:52;;;;;;;22.52;14.30;;;436.00;614.40;;;;;;4861165;29;20043;-64
2021/03/08 11:25:33;;;;;;;20.45;14.85;;;436.00;614.40;;;;;;4862371;29;20146;-73
2021/03/08 11:28:01;;;;;;;19.65;15.15;;;435.90;614.40;;;;;;4863952;29;20041;-78
2021/03/08 11:30:28;;;;;;;24.10;15.48;;;435.90;614.40;;;;;;4863978;29;20026;-77
2021/03/08 11:32:56;;;;;;;20.17;14.55;;;435.90;640.00;;;;;;4863487;29;20041;-72
2021/03/08 11:35:26;;;;;;;29.30;15.77;;;435.90;640.00;;;;;;4863310;29;20109;-69
2021/03/08 11:37:57;;;;;;;20.05;14.20;;;435.90;640.00;;;;;;4869238;29;20060;-69
2021/03/08 11:40:25;;;;;;;23.40;15.07;;;435.80;640.00;;;;;;4869399;29;20021;-78
2021/03/08 11:42:51;;;;;;;26.40;16.02;;;435.90;640.00;;;;;;4863566;29;20528;-76
2021/03/08 11:45:17;;;;;;;26.77;15.75;;;435.80;640.00;;;;;;4877709;29;20030;-74
2021/03/08 11:47:43;;;;;;;20.20;14.23;;;435.90;640.00;;;;;;4863329;29;20068;-77
2021/03/08 11:50:10;;;;;;;18.02;13.10;;;435.90;640.00;;;;;;4863507;29;20053;-76
2021/03/08 11:52:36;;;;;;;16.83;12.48;;;435.90;640.00;;;;;;4863462;29;20026;-74
2021/03/08 11:55:02;;;;;;;24.58;15.75;;;435.90;640.00;;;;;;4863064;29;20041;-77
2021/03/08 11:57:28;;;;;;;28.67;14.32;;;435.90;640.00;;;;;;4863353;29;20040;-73
2021/03/08 11:59:54;;;;;;;26.30;16.42;;;435.90;640.00;;;;;;4863705;29;20153;-76
2021/03/08 12:02:20;;;;;;;24.98;14.90;;;435.90;640.00;;;;;;4846157;29;20030;-74
2021/03/08 12:04:46;;;;;;;25.50;17.08;;;435.90;665.60;;;;;;4863142;29;20036;-74
2021/03/08 12:07:11;;;;;;;29.33;18.25;;;435.90;665.60;;;;;;4863400;29;20044;-74
2021/03/08 12:09:37;;;;;;;28.20;18.48;;;435.90;665.60;;;;;;4862817;29;20361;-69
2021/03/08 12:12:03;;;;;;;32.80;18.92;;;435.70;665.60;;;;;;4861753;29;20053;-74
2021/03/08 12:14:29;;;;;;;28.85;18.42;;;435.70;665.60;;;;;;4863119;29;20133;-74